Time;durP1;ratioP1;P1;durP2;ratioP2;P2;SDS_P1;SDS_P2;PMS_P1;PMS_P2;Temp;Humidity;BMP_temperature;BMP_pressure;BME280_temperature;BME280_humidity;BME280_pressure;Samples;Min_cycle;Max_cycle;Signal;HPM_P1;HPM_P2
2022/03/14 00:01:49;;;;;;;17.80;16.10;;;;;;;;;;5113926;27;20035;-76
2022/03/14 00:04:16;;;;;;;19.42;17.40;;;;;;;;;;5117532;27;20061;-76
2022/03/14 00:06:43;;;;;;;17.85;16.10;;;;;;;;;;5113554;28;20049;-76
2022/03/14 00:09:09;;;;;;;21.02;17.02;;;;;;;;;;5118291;27;20055;-76
2022/03/14 00:11:38;;;;;;;19.52;17.23;;;;;;;;;;5124026;27;20070;-76
2022/03/14 00:14:07;;;;;;;19.50;17.50;;;;;;;;;;5101019;28;20084;-76
2022/03/14 00:16:39;;;;;;;;;;;;;;;;;;5115127;27;20402;-76
2022/03/14 00:19:05;;;;;;;19.25;17.20;;;;;;;;;;5115144;27;19956;-76
2022/03/14 00:21:31;;;;;;;20.52;16.98;;;;;;;;;;5128231;27;20038;-77
2022/03/14 00:23:57;;;;;;;20.92;17.40;;;;;;;;;;5114751;27;20043;-77
2022/03/14 00:26:25;;;;;;;19.35;17.40;;;;;;;;;;5118925;27;20024;-77
2022/03/14 00:28:51;;;;;;;19.60;17.50;;;;;;;;;;5105856;27;20687;-76
2022/03/14 00:31:18;;;;;;;20.35;18.17;;;;;;;;;;5124726;27;20032;-76
2022/03/14 00:33:44;;;;;;;19.98;17.88;;;;;;;;;;5126411;27;20027;-77
2022/03/14 00:36:10;;;;;;;19.40;17.40;;;;;;;;;;5119590;27;20130;-76
2022/03/14 00:38:37;;;;;;;19.95;17.45;;;;;;;;;;5125054;27;20051;-77
2022/03/14 00:41:08;;;;;;;20.08;17.42;;;;;;;;;;5120589;27;20046;-76
2022/03/14 00:43:35;;;;;;;20.70;17.48;;;;;;;;;;5120497;27;20043;-77
2022/03/14 00:46:01;;;;;;;20.35;18.10;;;;;;;;;;5102576;27;20050;-77
2022/03/14 00:48:27;;;;;;;21.48;17.90;;;;;;;;;;5122312;27;20076;-77
2022/03/14 00:50:54;;;;;;;20.42;18.05;;;;;;;;;;5118158;27;20027;-76
2022/03/14 00:53:20;;;;;;;21.15;17.80;;;;;;;;;;5121410;27;20031;-76
2022/03/14 00:55:46;;;;;;;21.98;17.92;;;;;;;;;;5120967;27;20027;-76
2022/03/14 00:58:12;;;;;;;19.48;17.40;;;;;;;;;;5113440;27;20031;-76
2022/03/14 01:00:38;;;;;;;21.95;18.80;;;;;;;;;;5119988;27;20031;-76
2022/03/14 01:03:03;;;;;;;19.73;17.77;;;;;;;;;;5120259;27;20129;-76
2022/03/14 01:05:29;;;;;;;20.45;18.27;;;;;;;;;;5125358;27;20106;-76
2022/03/14 01:07:55;;;;;;;24.88;18.02;;;;;;;;;;5117478;27;20035;-77
2022/03/14 01:10:23;;;;;;;19.02;17.15;;;;;;;;;;5108965;27;20130;-76
2022/03/14 01:12:49;;;;;;;18.88;16.92;;;;;;;;;;5125777;27;20041;-76
2022/03/14 01:15:15;;;;;;;20.30;18.10;;;;;;;;;;5127233;27;20027;-76
2022/03/14 01:17:41;;;;;;;18.77;16.90;;;;;;;;;;5126084;27;20047;-76
2022/03/14 01:20:08;;;;;;;19.40;16.90;;;;;;;;;;5125145;27;20027;-76
2022/03/14 01:22:35;;;;;;;22.33;18.20;;;;;;;;;;5118756;27;20168;-76
2022/03/14 01:25:02;;;;;;;20.60;18.33;;;;;;;;;;5115052;27;20050;-76
2022/03/14 01:27:27;;;;;;;20.02;17.80;;;;;;;;;;5122496;27;20035;-76
2022/03/14 01:29:53;;;;;;;20.30;18.15;;;;;;;;;;5123285;27;20043;-76
2022/03/14 01:32:18;;;;;;;19.85;17.85;;;;;;;;;;5116514;27;20034;-76
2022/03/14 01:34:44;;;;;;;20.90;17.88;;;;;;;;;;5111029;27;20032;-76
2022/03/14 01:37:10;;;;;;;21.23;18.35;;;;;;;;;;5117505;27;20403;-76
2022/03/14 01:39:36;;;;;;;20.60;18.38;;;;;;;;;;5123657;27;20037;-76
2022/03/14 01:42:03;;;;;;;21.35;19.05;;;;;;;;;;5129628;27;20581;-76
2022/03/14 01:44:30;;;;;;;22.77;20.30;;;;;;;;;;5129504;27;20126;-76
2022/03/14 01:46:57;;;;;;;23.38;20.45;;;;;;;;;;5124315;27;20034;-76
2022/03/14 01:49:23;;;;;;;27.02;22.75;;;;;;;;;;5122755;27;20122;-76
2022/03/14 01:51:52;;;;;;;27.58;24.00;;;;;;;;;;5103846;28;20132;-76
2022/03/14 01:54:18;;;;;;;24.92;21.45;;;;;;;;;;5126938;27;20482;-76
2022/03/14 01:56:45;;;;;;;26.98;19.95;;;;;;;;;;5127258;27;20039;-76
2022/03/14 01:59:10;;;;;;;32.60;21.17;;;;;;;;;;5117115;27;20175;-76
2022/03/14 02:01:36;;;;;;;26.35;22.10;;;;;;;;;;5127570;27;20041;-76
2022/03/14 02:04:02;;;;;;;25.98;22.60;;;;;;;;;;5125977;27;20115;-76
2022/03/14 02:06:28;;;;;;;27.65;23.35;;;;;;;;;;5107409;27;20092;-76
2022/03/14 02:08:54;;;;;;;25.75;20.90;;;;;;;;;;5115811;27;20049;-76
2022/03/14 02:11:20;;;;;;;24.58;21.98;;;;;;;;;;5133020;27;20103;-76
2022/03/14 02:13:45;;;;;;;25.48;21.08;;;;;;;;;;5140048;27;20035;-76
2022/03/14 02:16:11;;;;;;;26.15;22.23;;;;;;;;;;5118025;27;20118;-76
2022/03/14 02:18:37;;;;;;;26.00;21.38;;;;;;;;;;5118917;27;20039;-76
2022/03/14 02:21:03;;;;;;;25.73;21.33;;;;;;;;;;5129020;27;20027;-76
2022/03/14 02:23:28;;;;;;;25.17;21.13;;;;;;;;;;5117270;27;20067;-76
2022/03/14 02:25:55;;;;;;;26.13;20.75;;;;;;;;;;5110771;27;20089;-76
2022/03/14 02:28:23;;;;;;;25.20;21.52;;;;;;;;;;5127802;27;20039;-76
2022/03/14 02:30:52;;;;;;;25.33;22.42;;;;;;;;;;5117083;27;20039;-76
2022/03/14 02:33:18;;;;;;;25.27;20.35;;;;;;;;;;5113694;27;20039;-76
2022/03/14 02:35:44;;;;;;;25.73;20.88;;;;;;;;;;5117444;27;20066;-76
2022/03/14 02:38:15;;;;;;;25.35;21.33;;;;;;;;;;5128966;27;20091;-76
2022/03/14 02:40:48;;;;;;;27.08;22.65;;;;;;;;;;5118580;27;20031;-76
2022/03/14 02:43:16;;;;;;;30.63;21.75;;;;;;;;;;5136201;27;20031;-76
2022/03/14 02:45:47;;;;;;;28.63;21.80;;;;;;;;;;5108517;27;20047;-76
2022/03/14 02:48:17;;;;;;;28.77;21.70;;;;;;;;;;5122183;27;20031;-76
2022/03/14 02:50:44;;;;;;;27.27;23.45;;;;;;;;;;5111770;27;20502;-77
2022/03/14 02:53:11;;;;;;;32.40;24.33;;;;;;;;;;5118207;27;20685;-75
2022/03/14 02:55:37;;;;;;;33.85;28.13;;;;;;;;;;5127742;27;20043;-76
2022/03/14 02:58:03;;;;;;;32.70;27.65;;;;;;;;;;5130720;27;20035;-76
2022/03/14 03:00:29;;;;;;;39.60;30.42;;;;;;;;;;5125612;27;20054;-77
2022/03/14 03:02:55;;;;;;;45.03;31.85;;;;;;;;;;5114593;27;20038;-75
2022/03/14 03:05:21;;;;;;;41.20;35.22;;;;;;;;;;5143858;27;20042;-76
2022/03/14 03:07:48;;;;;;;50.15;35.67;;;;;;;;;;5129339;27;20031;-76
2022/03/14 03:10:23;;;;;;;42.00;32.53;;;;;;;;;;5110532;27;20069;-75
2022/03/14 03:12:49;;;;;;;42.20;32.80;;;;;;;;;;5131015;27;20031;-76
2022/03/14 03:15:15;;;;;;;45.03;31.20;;;;;;;;;;5122286;27;20042;-75
2022/03/14 03:17:41;;;;;;;37.88;29.02;;;;;;;;;;5121733;27;20030;-75
2022/03/14 03:20:08;;;;;;;44.15;30.98;;;;;;;;;;5125295;27;20474;-75
2022/03/14 03:22:34;;;;;;;46.20;31.50;;;;;;;;;;5113646;27;20027;-76
2022/03/14 03:25:00;;;;;;;41.80;30.23;;;;;;;;;;5114420;27;20037;-75
2022/03/14 03:27:25;;;;;;;47.35;32.25;;;;;;;;;;5127234;27;20038;-76
2022/03/14 03:29:51;;;;;;;46.47;33.13;;;;;;;;;;5118989;27;20091;-76
2022/03/14 03:32:17;;;;;;;47.35;33.70;;;;;;;;;;5121410;27;20130;-75
2022/03/14 03:34:43;;;;;;;44.38;30.67;;;;;;;;;;5120442;27;20028;-75
2022/03/14 03:37:08;;;;;;;43.40;32.13;;;;;;;;;;5125918;27;20064;-76
2022/03/14 03:39:34;;;;;;;44.97;32.17;;;;;;;;;;5120401;27;20032;-75
2022/03/14 03:42:00;;;;;;;41.38;28.67;;;;;;;;;;5120398;27;20625;-76
2022/03/14 03:44:25;;;;;;;44.58;30.15;;;;;;;;;;5118430;27;20095;-76
2022/03/14 03:46:52;;;;;;;43.83;31.38;;;;;;;;;;5121821;28;20115;-75
2022/03/14 03:49:18;;;;;;;39.30;29.40;;;;;;;;;;5124681;27;20537;-76
2022/03/14 03:51:43;;;;;;;36.60;26.15;;;;;;;;;;5110015;28;20040;-76
2022/03/14 03:54:09;;;;;;;36.58;27.08;;;;;;;;;;5122857;27;20386;-76
2022/03/14 03:56:34;;;;;;;34.45;25.05;;;;;;;;;;5114383;28;20544;-75
2022/03/14 03:59:00;;;;;;;35.35;25.35;;;;;;;;;;5118448;27;20167;-76
2022/03/14 04:01:26;;;;;;;28.27;23.05;;;;;;;;;;5125185;27;20039;-76
2022/03/14 04:03:55;;;;;;;19.70;17.63;;;;;;;;;;5111295;27;20043;-76
2022/03/14 04:06:25;;;;;;;20.48;18.42;;;;;;;;;;5121605;27;20794;-76
2022/03/14 04:08:52;;;;;;;20.05;18.00;;;;;;;;;;5136637;27;20028;-76
2022/03/14 04:11:20;;;;;;;19.83;18.02;;;;;;;;;;5127348;27;20038;-76
2022/03/14 04:13:48;;;;;;;18.52;16.70;;;;;;;;;;5125455;27;20035;-76
2022/03/14 04:16:17;;;;;;;18.05;16.35;;;;;;;;;;5124654;27;20680;-76
2022/03/14 04:18:42;;;;;;;18.10;16.50;;;;;;;;;;5119016;27;20030;-76
2022/03/14 04:21:08;;;;;;;16.48;15.07;;;;;;;;;;5123387;27;20389;-76
2022/03/14 04:23:34;;;;;;;16.85;15.35;;;;;;;;;;5129479;27;20038;-76
2022/03/14 04:25:59;;;;;;;17.73;16.13;;;;;;;;;;5116892;27;20054;-76
2022/03/14 04:28:25;;;;;;;16.50;15.00;;;;;;;;;;5100576;27;20027;-76
2022/03/14 04:30:51;;;;;;;16.38;15.18;;;;;;;;;;5119729;27;20049;-76
2022/03/14 04:33:16;;;;;;;16.35;15.02;;;;;;;;;;5126638;27;20693;-76
2022/03/14 04:35:42;;;;;;;15.13;14.05;;;;;;;;;;5117139;27;20039;-76
2022/03/14 04:38:08;;;;;;;15.05;13.95;;;;;;;;;;5112636;27;20141;-76
2022/03/14 04:40:35;;;;;;;14.88;13.57;;;;;;;;;;5109363;27;20038;-75
2022/03/14 04:43:06;;;;;;;14.40;13.40;;;;;;;;;;5122095;27;20039;-76
2022/03/14 04:45:32;;;;;;;14.00;13.10;;;;;;;;;;5121005;27;20149;-76
2022/03/14 04:47:59;;;;;;;13.68;12.75;;;;;;;;;;5134209;27;20057;-76
2022/03/14 04:50:25;;;;;;;12.75;11.95;;;;;;;;;;5118482;27;20045;-76
2022/03/14 04:52:52;;;;;;;12.40;11.60;;;;;;;;;;5123135;27;20023;-76
2022/03/14 04:55:17;;;;;;;12.80;12.00;;;;;;;;;;5107667;27;20031;-76
2022/03/14 04:57:43;;;;;;;12.38;11.68;;;;;;;;;;5114743;27;20031;-76
2022/03/14 05:00:09;;;;;;;12.35;11.65;;;;;;;;;;5123482;27;20069;-76
2022/03/14 05:02:35;;;;;;;12.50;11.80;;;;;;;;;;5121756;27;20066;-76
2022/03/14 05:05:01;;;;;;;12.43;11.70;;;;;;;;;;5092187;28;20036;-76
2022/03/14 05:07:26;;;;;;;12.70;11.90;;;;;;;;;;5115162;27;20508;-76
2022/03/14 05:09:52;;;;;;;12.50;11.65;;;;;;;;;;5116807;27;20031;-76
2022/03/14 05:12:19;;;;;;;12.73;11.82;;;;;;;;;;5135295;27;20114;-76
2022/03/14 05:14:44;;;;;;;12.80;11.90;;;;;;;;;;5108987;27;20032;-76
2022/03/14 05:17:10;;;;;;;12.80;12.00;;;;;;;;;;5126098;27;20058;-76
2022/03/14 05:19:38;;;;;;;12.43;11.60;;;;;;;;;;5111116;27;20043;-76
2022/03/14 05:22:04;;;;;;;12.57;11.68;;;;;;;;;;5126748;27;20123;-76
2022/03/14 05:24:30;;;;;;;12.60;11.70;;;;;;;;;;5108956;27;20111;-76
2022/03/14 05:26:57;;;;;;;12.00;11.30;;;;;;;;;;5131921;27;20036;-76
2022/03/14 05:29:23;;;;;;;12.48;11.77;;;;;;;;;;5125069;27;20085;-76
2022/03/14 05:31:49;;;;;;;12.70;11.90;;;;;;;;;;5129151;27;20035;-76
2022/03/14 05:34:15;;;;;;;12.25;11.55;;;;;;;;;;5103203;27;20047;-77
2022/03/14 05:36:41;;;;;;;12.75;11.93;;;;;;;;;;5126915;27;20045;-76
2022/03/14 05:39:07;;;;;;;12.35;11.65;;;;;;;;;;5117698;27;20027;-76
2022/03/14 05:41:33;;;;;;;12.05;11.35;;;;;;;;;;5125192;27;20096;-76
2022/03/14 05:43:58;;;;;;;12.18;11.43;;;;;;;;;;5112975;27;20111;-76
2022/03/14 05:46:24;;;;;;;11.85;11.15;;;;;;;;;;5127172;27;20096;-76
2022/03/14 05:48:50;;;;;;;11.88;11.15;;;;;;;;;;5101227;28;20040;-76
2022/03/14 05:51:15;;;;;;;12.45;11.75;;;;;;;;;;5092250;27;20205;-76
2022/03/14 05:53:41;;;;;;;12.63;11.82;;;;;;;;;;5132849;27;20070;-76
2022/03/14 05:56:06;;;;;;;12.20;11.40;;;;;;;;;;5105381;28;20102;-75
2022/03/14 05:58:32;;;;;;;12.20;11.40;;;;;;;;;;5126397;27;20035;-76
2022/03/14 06:00:57;;;;;;;12.30;11.50;;;;;;;;;;5122269;27;20042;-77
2022/03/14 06:03:23;;;;;;;12.70;11.90;;;;;;;;;;5129844;27;20035;-77
2022/03/14 06:05:49;;;;;;;12.10;11.40;;;;;;;;;;5131690;27;20045;-76
2022/03/14 06:08:16;;;;;;;12.55;11.80;;;;;;;;;;5135252;27;20035;-76
2022/03/14 06:10:45;;;;;;;11.75;11.05;;;;;;;;;;5129382;27;20457;-76
2022/03/14 06:13:15;;;;;;;11.90;11.20;;;;;;;;;;5134100;27;20039;-77
2022/03/14 06:15:45;;;;;;;;;;;;;;;;;;5107374;27;20038;-76
2022/03/14 06:18:10;;;;;;;12.02;11.32;;;;;;;;;;5124265;27;19922;-77
2022/03/14 06:20:36;;;;;;;12.40;11.60;;;;;;;;;;5112310;27;20047;-76
2022/03/14 06:23:02;;;;;;;12.23;11.50;;;;;;;;;;5114382;27;20119;-76
2022/03/14 06:25:28;;;;;;;12.05;11.35;;;;;;;;;;5125601;27;20034;-76
2022/03/14 06:27:53;;;;;;;12.23;11.48;;;;;;;;;;5112359;27;20039;-76
2022/03/14 06:30:19;;;;;;;12.27;11.57;;;;;;;;;;5124106;27;20035;-77
2022/03/14 06:32:48;;;;;;;12.18;11.48;;;;;;;;;;5112313;28;20067;-76
2022/03/14 06:35:16;;;;;;;12.45;11.75;;;;;;;;;;5121967;27;20478;-77
2022/03/14 06:37:43;;;;;;;12.40;11.60;;;;;;;;;;5131327;27;20034;-76
2022/03/14 06:40:09;;;;;;;12.60;11.85;;;;;;;;;;5113989;27;20039;-76
2022/03/14 06:42:39;;;;;;;12.70;11.80;;;;;;;;;;5127981;27;20039;-75
2022/03/14 06:45:05;;;;;;;12.35;11.55;;;;;;;;;;5129678;27;20144;-75
2022/03/14 06:47:32;;;;;;;12.48;11.57;;;;;;;;;;5108329;27;20027;-77
2022/03/14 06:49:58;;;;;;;12.00;11.30;;;;;;;;;;5114797;27;20095;-77
2022/03/14 06:52:24;;;;;;;12.57;11.77;;;;;;;;;;5132728;27;20038;-77
2022/03/14 06:54:49;;;;;;;12.43;11.73;;;;;;;;;;5113579;27;20105;-77
2022/03/14 06:57:15;;;;;;;12.60;11.80;;;;;;;;;;5113884;27;20037;-77
2022/03/14 06:59:41;;;;;;;12.50;11.80;;;;;;;;;;5103901;28;20036;-77
2022/03/14 07:02:07;;;;;;;12.98;12.18;;;;;;;;;;5127400;27;20083;-76
2022/03/14 07:04:34;;;;;;;13.10;12.20;;;;;;;;;;5118467;27;20612;-76
2022/03/14 07:07:03;;;;;;;13.25;12.45;;;;;;;;;;5116604;27;20135;-76
2022/03/14 07:09:30;;;;;;;12.77;12.00;;;;;;;;;;5097746;28;20042;-76
2022/03/14 07:11:56;;;;;;;12.70;11.90;;;;;;;;;;5126497;27;20027;-77
2022/03/14 07:14:22;;;;;;;12.20;11.50;;;;;;;;;;5118096;27;20047;-77
2022/03/14 07:16:49;;;;;;;12.63;11.90;;;;;;;;;;5117890;27;20039;-77
2022/03/14 07:19:15;;;;;;;12.32;11.63;;;;;;;;;;5098041;28;20035;-76
2022/03/14 07:21:40;;;;;;;12.38;11.68;;;;;;;;;;5105946;28;20031;-76
2022/03/14 07:24:07;;;;;;;12.35;11.65;;;;;;;;;;5119454;27;20043;-77
2022/03/14 07:26:33;;;;;;;11.98;11.27;;;;;;;;;;5132650;27;20039;-76
2022/03/14 07:28:59;;;;;;;12.40;11.60;;;;;;;;;;5084955;28;20036;-76
2022/03/14 07:31:25;;;;;;;12.68;11.98;;;;;;;;;;5098693;28;20066;-76
2022/03/14 07:33:51;;;;;;;12.05;11.35;;;;;;;;;;5124127;27;20039;-76
2022/03/14 07:36:17;;;;;;;12.05;11.35;;;;;;;;;;5132313;27;20043;-76
2022/03/14 07:38:43;;;;;;;12.35;11.65;;;;;;;;;;5130298;27;20035;-76
2022/03/14 07:41:10;;;;;;;12.90;12.00;;;;;;;;;;5082911;28;20053;-76
2022/03/14 07:43:38;;;;;;;12.07;11.38;;;;;;;;;;5124726;27;20069;-76
2022/03/14 07:46:04;;;;;;;12.15;11.45;;;;;;;;;;5131532;27;20039;-76
2022/03/14 07:48:30;;;;;;;11.82;11.23;;;;;;;;;;5130979;28;20554;-76
2022/03/14 07:50:55;;;;;;;11.55;10.90;;;;;;;;;;5129902;27;20367;-75
2022/03/14 07:53:21;;;;;;;11.20;10.60;;;;;;;;;;5128460;27;20019;-75
2022/03/14 07:55:47;;;;;;;11.30;10.60;;;;;;;;;;5124766;28;20032;-75
2022/03/14 07:58:13;;;;;;;11.18;10.57;;;;;;;;;;5118884;28;20040;-75
2022/03/14 08:00:38;;;;;;;10.90;10.30;;;;;;;;;;5111788;28;20043;-75
2022/03/14 08:03:04;;;;;;;10.45;9.85;;;;;;;;;;5111799;28;20039;-75
2022/03/14 08:05:30;;;;;;;10.60;10.00;;;;;;;;;;5116793;27;20035;-75
2022/03/14 08:07:55;;;;;;;10.43;9.82;;;;;;;;;;5123549;27;20035;-75
2022/03/14 08:10:22;;;;;;;11.00;10.30;;;;;;;;;;5113463;28;20126;-75
2022/03/14 08:12:50;;;;;;;11.13;10.38;;;;;;;;;;5135554;27;20059;-75
2022/03/14 08:15:23;;;;;;;11.20;10.38;;;;;;;;;;5126312;27;20035;-75
2022/03/14 08:17:50;;;;;;;10.30;9.70;;;;;;;;;;5112785;28;20474;-75
2022/03/14 08:20:16;;;;;;;10.77;9.85;;;;;;;;;;5123936;27;20027;-75
2022/03/14 08:22:42;;;;;;;10.98;10.18;;;;;;;;;;5113619;28;20124;-75
2022/03/14 08:25:09;;;;;;;11.60;10.50;;;;;;;;;;5130552;28;20061;-75
2022/03/14 08:27:35;;;;;;;10.98;10.20;;;;;;;;;;5127663;27;20027;-75
2022/03/14 08:30:00;;;;;;;11.05;10.35;;;;;;;;;;5123560;27;20042;-75
2022/03/14 08:32:26;;;;;;;11.45;10.65;;;;;;;;;;5109904;28;20035;-75
2022/03/14 08:34:53;;;;;;;11.80;11.00;;;;;;;;;;5130901;28;20043;-76
2022/03/14 08:37:20;;;;;;;11.77;10.88;;;;;;;;;;5121949;28;20080;-75
2022/03/14 08:39:48;;;;;;;11.73;10.68;;;;;;;;;;5121293;28;20473;-75
2022/03/14 08:42:14;;;;;;;11.80;10.90;;;;;;;;;;5103733;28;20032;-75
2022/03/14 08:44:41;;;;;;;10.77;10.02;;;;;;;;;;5125198;27;20035;-75
2022/03/14 08:47:07;;;;;;;11.35;10.38;;;;;;;;;;5121240;27;20157;-75
2022/03/14 08:49:34;;;;;;;11.10;10.27;;;;;;;;;;5113167;27;20402;-76
2022/03/14 08:52:00;;;;;;;11.00;10.20;;;;;;;;;;5111363;27;21300;-76
2022/03/14 08:54:27;;;;;;;11.02;10.25;;;;;;;;;;5127428;27;20084;-76
2022/03/14 08:56:54;;;;;;;10.63;9.73;;;;;;;;;;5115321;27;20074;-74
2022/03/14 08:59:20;;;;;;;10.23;9.52;;;;;;;;;;5119734;27;20128;-75
2022/03/14 09:01:45;;;;;;;11.57;10.55;;;;;;;;;;5116180;27;20520;-75
2022/03/14 09:04:11;;;;;;;11.23;10.52;;;;;;;;;;5126211;27;20042;-75
2022/03/14 09:06:36;;;;;;;11.18;10.45;;;;;;;;;;5116471;27;20104;-76
2022/03/14 09:09:03;;;;;;;10.98;10.15;;;;;;;;;;5114665;27;20122;-76
2022/03/14 09:11:29;;;;;;;11.35;10.63;;;;;;;;;;5127929;27;20050;-76
2022/03/14 09:13:57;;;;;;;12.45;11.20;;;;;;;;;;5124655;27;20035;-76
2022/03/14 09:16:22;;;;;;;12.05;11.15;;;;;;;;;;5112423;27;20084;-76
2022/03/14 09:18:48;;;;;;;12.52;11.35;;;;;;;;;;5102882;27;20047;-75
2022/03/14 09:21:14;;;;;;;12.05;11.13;;;;;;;;;;5118993;27;20097;-75
2022/03/14 09:23:42;;;;;;;12.57;11.77;;;;;;;;;;5120824;27;20090;-75
2022/03/14 09:26:09;;;;;;;12.30;11.20;;;;;;;;;;5130131;27;20038;-75
2022/03/14 09:28:36;;;;;;;12.25;11.27;;;;;;;;;;5119898;27;20035;-74
2022/03/14 09:31:03;;;;;;;12.02;11.13;;;;;;;;;;5109817;28;20499;-74
2022/03/14 09:33:29;;;;;;;12.68;11.57;;;;;;;;;;5114012;27;20475;-75
2022/03/14 09:35:55;;;;;;;12.55;11.45;;;;;;;;;;5141103;27;20031;-74
2022/03/14 09:38:20;;;;;;;12.60;11.55;;;;;;;;;;5111041;27;20136;-74
2022/03/14 09:40:49;;;;;;;13.48;12.13;;;;;;;;;;5113563;27;20034;-74
2022/03/14 09:43:18;;;;;;;12.73;11.93;;;;;;;;;;5120362;27;20015;-75
2022/03/14 09:45:47;;;;;;;12.95;12.00;;;;;;;;;;5120592;27;20292;-74
2022/03/14 09:48:16;;;;;;;14.25;13.25;;;;;;;;;;5123837;27;20102;-75
2022/03/14 09:50:45;;;;;;;13.52;12.52;;;;;;;;;;5097802;27;20122;-75
2022/03/14 09:53:17;;;;;;;13.48;12.38;;;;;;;;;;5096956;28;20058;-74
2022/03/14 09:55:45;;;;;;;13.85;12.52;;;;;;;;;;5114232;27;20043;-75
2022/03/14 09:58:15;;;;;;;13.02;12.13;;;;;;;;;;5124892;27;20054;-75
2022/03/14 10:00:42;;;;;;;13.23;12.10;;;;;;;;;;5111031;27;20035;-75
2022/03/14 10:03:08;;;;;;;13.18;12.18;;;;;;;;;;5128486;27;20510;-75
2022/03/14 10:05:34;;;;;;;13.23;11.73;;;;;;;;;;5100412;27;20039;-76
2022/03/14 10:08:01;;;;;;;12.57;11.50;;;;;;;;;;5118850;27;20062;-75
2022/03/14 10:10:28;;;;;;;12.25;11.45;;;;;;;;;;5109329;27;20042;-75
2022/03/14 10:12:57;;;;;;;12.73;11.82;;;;;;;;;;5110954;27;20393;-75
2022/03/14 10:15:27;;;;;;;12.50;11.60;;;;;;;;;;5121317;27;20034;-75
2022/03/14 10:17:54;;;;;;;12.02;11.27;;;;;;;;;;5114307;27;20046;-75
2022/03/14 10:20:25;;;;;;;12.57;11.50;;;;;;;;;;5115156;27;20027;-75
2022/03/14 10:22:51;;;;;;;12.50;11.68;;;;;;;;;;5117839;27;20502;-75
2022/03/14 10:25:19;;;;;;;12.77;11.77;;;;;;;;;;5108697;28;20498;-75
2022/03/14 10:27:57;;;;;;;11.88;11.15;;;;;;;;;;5109488;27;20039;-75
2022/03/14 10:30:31;;;;;;;12.80;11.70;;;;;;;;;;5103878;27;20031;-75
2022/03/14 10:33:09;;;;;;;12.55;11.57;;;;;;;;;;5112511;27;20024;-74
2022/03/14 10:35:37;;;;;;;12.70;11.60;;;;;;;;;;5111111;27;20034;-74
2022/03/14 10:38:04;;;;;;;12.48;11.35;;;;;;;;;;5117896;27;20081;-74
2022/03/14 10:40:36;;;;;;;12.57;11.70;;;;;;;;;;5107894;27;20054;-73
2022/03/14 10:43:06;;;;;;;13.60;12.40;;;;;;;;;;5117717;27;20123;-74
2022/03/14 10:45:32;;;;;;;12.18;11.15;;;;;;;;;;5121631;27;20034;-73
2022/03/14 10:47:58;;;;;;;12.50;11.60;;;;;;;;;;5112793;27;20034;-74
2022/03/14 10:50:31;;;;;;;12.18;11.38;;;;;;;;;;5123626;27;20749;-74
2022/03/14 10:53:20;;;;;;;12.32;11.43;;;;;;;;;;5127780;27;20031;-74
2022/03/14 10:55:48;;;;;;;12.48;11.57;;;;;;;;;;5111832;27;20046;-74
2022/03/14 10:58:17;;;;;;;12.20;11.27;;;;;;;;;;5120063;27;20069;-74
2022/03/14 11:00:54;;;;;;;11.95;11.02;;;;;;;;;;5118426;27;20043;-74
2022/03/14 11:03:30;;;;;;;12.18;11.15;;;;;;;;;;5107321;28;20126;-74
2022/03/14 11:06:03;;;;;;;11.20;10.45;;;;;;;;;;5111770;27;20042;-74
2022/03/14 11:08:48;;;;;;;11.68;10.70;;;;;;;;;;5118362;27;20062;-74
2022/03/14 11:11:20;;;;;;;11.85;11.05;;;;;;;;;;5125478;27;20049;-74
2022/03/14 11:13:47;;;;;;;11.40;10.60;;;;;;;;;;5124271;27;20184;-74
2022/03/14 11:16:21;;;;;;;11.40;10.60;;;;;;;;;;5122372;27;20038;-74
2022/03/14 11:18:49;;;;;;;11.00;10.20;;;;;;;;;;5119419;27;20035;-74
2022/03/14 11:21:18;;;;;;;11.80;11.00;;;;;;;;;;5123721;27;20379;-73
2022/03/14 11:23:46;;;;;;;12.02;10.90;;;;;;;;;;5118117;27;20050;-74
2022/03/14 11:26:15;;;;;;;11.30;10.55;;;;;;;;;;5111230;27;20042;-74
2022/03/14 11:28:41;;;;;;;12.07;11.18;;;;;;;;;;5108209;27;20044;-74
2022/03/14 11:31:08;;;;;;;10.90;10.00;;;;;;;;;;5123373;27;20066;-74
2022/03/14 11:33:35;;;;;;;10.93;10.23;;;;;;;;;;5104095;28;20096;-74
2022/03/14 11:36:04;;;;;;;11.60;10.70;;;;;;;;;;5127383;27;20087;-74
2022/03/14 11:38:33;;;;;;;11.75;10.68;;;;;;;;;;5121067;27;20482;-74
2022/03/14 11:41:00;;;;;;;11.70;10.80;;;;;;;;;;5122827;27;20078;-74
2022/03/14 11:43:27;;;;;;;12.40;11.30;;;;;;;;;;5120959;27;20039;-74
2022/03/14 11:45:54;;;;;;;11.77;10.90;;;;;;;;;;5111255;27;20039;-74
2022/03/14 11:48:21;;;;;;;11.65;10.77;;;;;;;;;;5120585;27;20027;-74
2022/03/14 11:51:02;;;;;;;11.70;10.77;;;;;;;;;;5124590;27;20042;-74
2022/03/14 11:53:34;;;;;;;11.93;11.13;;;;;;;;;;5120217;27;20039;-74
2022/03/14 11:56:00;;;;;;;11.40;10.68;;;;;;;;;;5120689;27;20042;-74
2022/03/14 11:58:35;;;;;;;11.98;11.10;;;;;;;;;;5123605;27;20036;-74
2022/03/14 12:01:27;;;;;;;11.85;10.95;;;;;;;;;;5108657;28;20730;-74
2022/03/14 12:03:57;;;;;;;11.55;10.75;;;;;;;;;;5117683;27;20094;-74
2022/03/14 12:06:49;;;;;;;11.98;10.98;;;;;;;;;;5116505;27;20034;-74
2022/03/14 12:09:24;;;;;;;12.15;11.15;;;;;;;;;;5116435;27;20035;-74
2022/03/14 12:11:51;;;;;;;11.77;11.07;;;;;;;;;;5123784;27;20043;-74
2022/03/14 12:14:47;;;;;;;11.95;11.02;;;;;;;;;;5123840;27;20093;-74
2022/03/14 12:17:13;;;;;;;11.57;10.88;;;;;;;;;;5116733;27;20054;-74
2022/03/14 12:19:47;;;;;;;12.27;11.00;;;;;;;;;;5107944;27;20065;-75
2022/03/14 12:22:32;;;;;;;12.30;11.40;;;;;;;;;;5119061;27;20066;-76
2022/03/14 12:25:03;;;;;;;12.70;11.80;;;;;;;;;;5122861;27;20038;-75
2022/03/14 12:27:34;;;;;;;12.23;11.35;;;;;;;;;;5115880;27;20035;-75
2022/03/14 12:30:06;;;;;;;12.20;11.30;;;;;;;;;;5123976;27;20104;-75
2022/03/14 12:32:34;;;;;;;12.25;11.32;;;;;;;;;;5119321;27;20034;-75
2022/03/14 12:35:06;;;;;;;11.43;10.73;;;;;;;;;;5116344;27;20706;-75
2022/03/14 12:37:35;;;;;;;12.20;11.35;;;;;;;;;;5109219;28;20043;-75
2022/03/14 12:40:14;;;;;;;11.57;10.77;;;;;;;;;;5109745;27;20035;-74
2022/03/14 12:42:45;;;;;;;12.05;11.25;;;;;;;;;;5120078;27;20125;-74
2022/03/14 12:45:35;;;;;;;12.55;11.60;;;;;;;;;;5122311;27;20124;-74
2022/03/14 12:48:24;;;;;;;12.40;11.60;;;;;;;;;;5110484;27;20084;-75
2022/03/14 12:50:50;;;;;;;13.13;12.13;;;;;;;;;;5120285;27;20464;-74
2022/03/14 12:53:18;;;;;;;12.93;11.85;;;;;;;;;;5128324;27;20028;-75
2022/03/14 12:55:47;;;;;;;12.52;11.70;;;;;;;;;;5128466;27;20039;-75
2022/03/14 12:58:26;;;;;;;12.52;11.52;;;;;;;;;;5127689;27;20037;-75
2022/03/14 13:00:55;;;;;;;12.52;11.63;;;;;;;;;;5118543;27;20028;-75
2022/03/14 13:03:26;;;;;;;12.75;11.88;;;;;;;;;;5110112;28;20028;-75
2022/03/14 13:05:52;;;;;;;12.30;11.38;;;;;;;;;;5109461;27;20605;-75
2022/03/14 13:08:19;;;;;;;12.75;11.68;;;;;;;;;;5126205;27;20031;-75
2022/03/14 13:10:47;;;;;;;12.45;11.70;;;;;;;;;;5120886;27;20031;-75
2022/03/14 13:13:22;;;;;;;12.20;11.43;;;;;;;;;;5126845;27;20028;-75
2022/03/14 13:16:03;;;;;;;12.57;11.77;;;;;;;;;;5111692;27;20120;-75
2022/03/14 13:18:50;;;;;;;12.80;11.90;;;;;;;;;;5123783;27;20047;-75
2022/03/14 13:21:16;;;;;;;12.52;11.50;;;;;;;;;;5110911;27;20125;-75
2022/03/14 13:23:44;;;;;;;12.07;11.07;;;;;;;;;;5127583;27;20035;-75
2022/03/14 13:26:11;;;;;;;12.23;11.40;;;;;;;;;;5115377;27;20035;-75
2022/03/14 13:28:39;;;;;;;12.65;11.52;;;;;;;;;;5119520;27;20037;-75
2022/03/14 13:31:10;;;;;;;12.18;11.38;;;;;;;;;;5107726;27;20035;-75
2022/03/14 13:33:47;;;;;;;12.27;11.32;;;;;;;;;;5108607;27;20024;-75
2022/03/14 13:36:15;;;;;;;12.20;11.40;;;;;;;;;;5120568;27;20039;-75
2022/03/14 13:38:52;;;;;;;12.00;11.10;;;;;;;;;;5131527;27;20045;-75
2022/03/14 13:41:22;;;;;;;12.38;11.50;;;;;;;;;;5113186;27;20044;-75
2022/03/14 13:43:49;;;;;;;12.35;11.55;;;;;;;;;;5129614;27;20128;-75
2022/03/14 13:46:47;;;;;;;12.27;11.48;;;;;;;;;;5122943;27;20129;-75
2022/03/14 13:49:13;;;;;;;11.98;11.18;;;;;;;;;;5109200;27;20077;-75
2022/03/14 13:51:52;;;;;;;11.73;10.98;;;;;;;;;;5118999;27;20043;-74
2022/03/14 13:54:28;;;;;;;13.07;12.18;;;;;;;;;;5121357;27;20046;-75
2022/03/14 13:57:10;;;;;;;12.75;11.73;;;;;;;;;;5119222;27;20040;-75
2022/03/14 13:59:46;;;;;;;13.00;12.00;;;;;;;;;;5115644;27;20042;-75
2022/03/14 14:02:14;;;;;;;12.82;11.90;;;;;;;;;;5113515;27;20055;-75
2022/03/14 14:04:41;;;;;;;12.70;11.85;;;;;;;;;;5127947;27;20035;-75
2022/03/14 14:07:23;;;;;;;13.30;12.27;;;;;;;;;;5132454;27;20095;-75
2022/03/14 14:09:50;;;;;;;12.63;11.80;;;;;;;;;;5115276;27;20103;-75
2022/03/14 14:12:15;;;;;;;13.57;12.27;;;;;;;;;;5130176;27;20474;-75
2022/03/14 14:14:50;;;;;;;12.65;11.65;;;;;;;;;;5103546;27;20045;-75
2022/03/14 14:17:19;;;;;;;13.25;12.15;;;;;;;;;;5125139;27;20108;-75
2022/03/14 14:20:04;;;;;;;12.68;11.70;;;;;;;;;;5109193;27;20031;-75
2022/03/14 14:22:30;;;;;;;12.85;11.82;;;;;;;;;;5130458;27;20032;-75
2022/03/14 14:24:57;;;;;;;12.48;11.57;;;;;;;;;;5127696;27;20050;-75